createdAt,value
2019-04-01T00:01:01.869Z,102683.92
2019-04-01T00:03:32.889Z,102686.11
2019-04-01T00:06:03.787Z,102683.48
2019-04-01T00:08:34.723Z,102682.62
2019-04-01T00:11:05.625Z,102688.24
2019-04-01T00:13:37.414Z,102688.67
2019-04-01T00:16:08.331Z,102687.37
2019-04-01T00:18:40.862Z,102686.95
2019-04-01T00:21:11.761Z,102685.63
2019-04-01T00:23:42.789Z,102684.78
2019-04-01T00:26:13.682Z,102688.69
2019-04-01T00:28:48.759Z,102687.39
2019-04-01T00:31:19.762Z,102693.48
2019-04-01T00:33:50.704Z,102690.42
2019-04-01T00:36:21.604Z,102695.67
2019-04-01T00:38:52.539Z,102697.84
2019-04-01T00:41:23.527Z,102701.75
2019-04-01T00:43:56.253Z,102700.89
2019-04-01T00:46:27.845Z,102700.89
2019-04-01T00:48:58.777Z,102697.45
2019-04-01T00:51:29.673Z,102699.62
2019-04-01T00:54:00.642Z,102700.91
2019-04-01T00:56:31.539Z,102693.97
2019-04-01T00:59:02.493Z,102700.06
2019-04-01T01:01:33.407Z,102700.06
2019-04-01T01:04:04.363Z,102700.52
2019-04-01T01:06:35.272Z,102704.01
2019-04-01T01:09:06.619Z,102706.19
2019-04-01T01:11:37.524Z,102699.19
2019-04-01T01:14:08.469Z,102709.19
2019-04-01T01:16:39.377Z,102709.19
2019-04-01T01:19:10.309Z,102707.02
2019-04-01T01:21:41.208Z,102703.97
2019-04-01T01:24:12.149Z,102702.67
2019-04-01T01:26:43.056Z,102701.37
2019-04-01T01:29:15.623Z,102720.06
2019-04-01T01:31:46.596Z,102720.06
2019-04-01T01:34:17.599Z,102719.13
2019-04-01T01:36:48.509Z,102719.13
2019-04-01T01:39:19.430Z,102720.44
2019-04-01T01:41:50.344Z,102728.28
2019-04-01T01:44:21.335Z,102726.95
2019-04-01T01:46:52.228Z,102730.39
2019-04-01T01:49:23.177Z,102730.39
2019-04-01T01:51:54.081Z,102737.33
2019-04-01T01:54:25.007Z,102750.37
2019-04-01T01:56:55.909Z,102739.47
2019-04-01T01:59:26.806Z,102739.47
2019-04-01T02:01:58.531Z,102750.31
2019-04-01T02:04:31.215Z,102747.68
2019-04-01T02:07:02.253Z,102747.68
2019-04-01T02:09:33.203Z,102750.73
2019-04-01T02:12:04.161Z,102752.05
2019-04-01T02:14:35.167Z,102757.23
2019-04-01T02:17:06.311Z,102758.96
2019-04-01T02:19:38.138Z,102759.38
2019-04-01T02:22:09.086Z,102771.96
2019-04-01T02:24:39.992Z,102770.62
2019-04-01T02:27:10.925Z,102778.45
2019-04-01T02:29:41.825Z,102774.50
2019-04-01T02:32:12.774Z,102778.80
2019-04-01T02:34:43.681Z,102785.73
2019-04-01T02:37:14.618Z,102782.26
2019-04-01T02:39:45.528Z,102788.73
2019-04-01T02:42:16.571Z,102791.76
2019-04-01T02:44:47.488Z,102793.45
2019-04-01T02:47:18.552Z,102797.78
2019-04-01T02:49:49.463Z,102796.02
2019-04-01T02:52:20.402Z,102793.38
2019-04-01T02:54:52.624Z,102792.45
2019-04-01T02:57:23.612Z,102790.73
2019-04-01T02:59:54.520Z,102795.05
2019-04-01T03:02:26.395Z,102803.29
2019-04-01T03:04:57.299Z,102804.98
2019-04-01T03:07:28.231Z,102809.77
2019-04-01T03:09:59.144Z,102809.72
2019-04-01T03:12:30.147Z,102814.05
2019-04-01T03:15:01.121Z,102814.88
2019-04-01T03:17:44.065Z,102817.45
2019-04-01T03:20:08.407Z,102817.45
2019-04-01T03:22:39.349Z,102823.95
2019-04-01T03:25:10.246Z,102827.81
2019-04-01T03:27:41.195Z,102836.92
2019-04-01T03:30:12.153Z,102851.66
2019-04-01T03:32:45.146Z,102856.83
2019-04-01T03:35:15.949Z,102870.30
2019-04-01T03:37:47.046Z,102865.93
2019-04-01T03:40:18.026Z,102865.89
2019-04-01T03:42:48.960Z,102876.30
2019-04-01T03:45:19.876Z,102870.63
2019-04-01T03:47:54.162Z,102877.55
2019-04-01T03:50:25.083Z,102879.22
2019-04-01T03:52:56.042Z,102881.39
2019-04-01T03:55:26.991Z,102883.08
2019-04-01T03:57:58.009Z,102878.74
2019-04-01T04:00:28.923Z,102881.30
2019-04-01T04:03:00.743Z,102888.27
2019-04-01T04:05:31.656Z,102891.34
2019-04-01T04:08:09.996Z,102889.11
2019-04-01T04:10:35.192Z,102888.27
2019-04-01T04:13:08.669Z,102897.37
2019-04-01T04:15:39.602Z,102896.91
2019-04-01T04:18:11.387Z,102897.75
2019-04-01T04:20:43.122Z,102902.06
2019-04-01T04:23:14.073Z,102908.10
2019-04-01T04:25:45.187Z,102905.48
2019-04-01T04:28:16.239Z,102909.41
2019-04-01T04:30:47.457Z,102912.06
2019-04-01T04:33:19.273Z,102914.25
2019-04-01T04:35:50.223Z,102911.65
2019-04-01T04:38:21.232Z,102910.40
2019-04-01T04:40:52.216Z,102919.09
2019-04-01T04:43:23.235Z,102923.45
2019-04-01T04:45:54.145Z,102929.98
2019-04-01T04:48:25.909Z,102931.33
2019-04-01T04:50:56.889Z,102941.84
2019-04-01T04:53:27.819Z,102945.41
2019-04-01T04:55:58.735Z,102944.72
2019-04-01T04:58:29.669Z,102952.27
2019-04-01T05:01:00.567Z,102951.20
2019-04-01T05:03:32.452Z,102956.30
2019-04-01T05:06:03.363Z,102964.89
2019-04-01T05:08:34.369Z,102962.98
2019-04-01T05:11:05.353Z,102966.31
2019-04-01T05:13:38.046Z,102971.23
2019-04-01T05:16:09.157Z,102975.25
2019-04-01T05:18:40.122Z,102975.29
2019-04-01T05:21:12.240Z,102975.29
2019-04-01T05:23:43.942Z,102980.00
2019-04-01T05:26:15.918Z,102980.80
2019-04-01T05:28:50.112Z,102978.45
2019-04-01T05:31:23.057Z,102979.55
2019-04-01T05:33:56.329Z,102984.53
2019-04-01T05:36:27.738Z,102989.87
2019-04-01T05:38:58.732Z,102987.39
2019-04-01T05:41:29.646Z,102996.23
2019-04-01T05:44:02.409Z,102992.83
2019-04-01T05:46:33.629Z,102998.92
2019-04-01T05:49:05.374Z,102997.05
2019-04-01T05:51:36.991Z,102996.14
2019-04-01T05:54:08.714Z,103003.18
2019-04-01T05:56:39.614Z,103004.49
2019-04-01T05:59:10.547Z,103004.12
2019-04-01T06:01:43.088Z,103003.72
2019-04-01T06:04:16.080Z,103008.55
2019-04-01T06:06:48.790Z,103004.99
2019-04-01T06:09:19.653Z,103007.53
2019-04-01T06:11:52.876Z,103004.70
2019-04-01T06:14:23.839Z,103011.59
2019-04-01T06:16:55.442Z,103010.34
2019-04-01T06:19:27.360Z,103016.84
2019-04-01T06:22:00.674Z,103008.84
2019-04-01T06:24:32.129Z,103018.91
2019-04-01T06:27:03.035Z,103022.96
2019-04-01T06:29:34.046Z,103029.12
2019-04-01T06:32:04.962Z,103029.58
2019-04-01T06:34:35.939Z,103023.97
2019-04-01T06:37:07.141Z,103029.71
2019-04-01T06:39:38.073Z,103036.44
2019-04-01T06:42:09.835Z,103038.91
2019-04-01T06:44:40.767Z,103035.00
2019-04-01T06:47:11.675Z,103034.53
2019-04-01T06:49:43.533Z,103036.78
2019-04-01T06:52:14.458Z,103039.02
2019-04-01T06:54:45.400Z,103047.55
2019-04-01T06:57:18.855Z,103050.84
2019-04-01T06:59:49.020Z,103053.34
2019-04-01T07:02:20.039Z,103056.06
2019-04-01T07:04:51.720Z,103052.11
2019-04-01T07:07:22.649Z,103060.02
2019-04-01T07:09:53.597Z,103061.05
2019-04-01T07:12:24.822Z,103064.77
2019-04-01T07:14:55.753Z,103062.44
2019-04-01T07:17:26.664Z,103065.02
2019-04-01T07:19:58.592Z,103068.20
2019-04-01T07:22:31.198Z,103065.61
2019-04-01T07:25:02.124Z,103068.69
2019-04-01T07:27:33.267Z,103074.67
2019-04-01T07:30:05.202Z,103074.32
2019-04-01T07:32:36.123Z,103080.66
2019-04-01T07:35:07.870Z,103082.38
2019-04-01T07:37:38.774Z,103086.98
2019-04-01T07:40:09.896Z,103083.54
2019-04-01T07:42:40.800Z,103088.38
2019-04-01T07:45:11.836Z,103093.02
2019-04-01T07:47:42.725Z,103099.72
2019-04-01T07:50:15.787Z,103103.68
2019-04-01T07:52:46.635Z,103109.64
2019-04-01T07:55:17.555Z,103102.61
2019-04-01T07:57:48.448Z,103111.45
2019-04-01T08:00:20.192Z,103110.56
2019-04-01T08:02:51.087Z,103109.25
2019-04-01T08:05:25.765Z,103115.75
2019-04-01T08:07:54.791Z,103117.16
2019-04-01T08:10:25.735Z,103117.69
2019-04-01T08:12:56.704Z,103123.92
2019-04-01T08:15:27.829Z,103117.45
2019-04-01T08:17:58.903Z,103120.12
2019-04-01T08:20:30.676Z,103119.58
2019-04-01T08:23:02.338Z,103122.38
2019-04-01T08:25:33.265Z,103127.14
2019-04-01T08:28:04.353Z,103119.83
2019-04-01T08:30:35.385Z,103123.09
2019-04-01T08:33:06.304Z,103128.48
2019-04-01T08:35:38.030Z,103126.80
2019-04-01T08:38:08.928Z,103131.16
2019-04-01T08:40:39.862Z,103123.97
2019-04-01T08:43:10.852Z,103134.69
2019-04-01T08:45:41.779Z,103133.77
2019-04-01T08:48:12.678Z,103139.66
2019-04-01T08:50:43.639Z,103143.38
2019-04-01T08:53:14.607Z,103133.56
2019-04-01T08:55:45.531Z,103142.36
2019-04-01T08:58:16.434Z,103139.57
2019-04-01T09:00:47.355Z,103137.52
2019-04-01T09:03:18.251Z,103136.84
2019-04-01T09:05:50.164Z,103144.76
2019-04-01T09:08:22.998Z,103134.25
2019-04-01T09:10:54.522Z,103150.31
2019-04-01T09:13:26.111Z,103148.34
2019-04-01T09:15:57.334Z,103147.66
2019-04-01T09:18:28.263Z,103144.63
2019-04-01T09:20:59.299Z,103143.98
2019-04-01T09:23:31.165Z,103144.31
2019-04-01T09:26:02.132Z,103141.94
2019-04-01T09:28:33.017Z,103143.83
2019-04-01T09:31:03.933Z,103142.16
2019-04-01T09:33:34.825Z,103154.59
2019-04-01T09:36:06.734Z,103152.31
2019-04-01T09:38:37.617Z,103148.39
2019-04-01T09:41:08.532Z,103148.03
2019-04-01T09:43:39.409Z,103139.40
2019-04-01T09:46:10.331Z,103148.48
2019-04-01T09:48:41.225Z,103145.15
2019-04-01T09:51:12.971Z,103153.61
2019-04-01T09:53:43.856Z,103155.73
2019-04-01T09:56:14.788Z,103143.52
2019-04-01T09:58:45.673Z,103151.51
2019-04-01T10:01:16.579Z,103161.58
2019-04-01T10:03:47.469Z,103160.53
2019-04-01T10:06:19.249Z,103161.37
2019-04-01T10:08:50.138Z,103155.14
2019-04-01T10:11:21.070Z,103157.30
2019-04-01T10:13:51.970Z,103159.32
2019-04-01T10:16:26.327Z,103161.41
2019-04-01T10:18:55.461Z,103171.18
2019-04-01T10:21:26.393Z,103162.76
2019-04-01T10:23:59.717Z,103159.65
2019-04-01T10:26:30.726Z,103167.19
2019-04-01T10:29:01.637Z,103158.44
2019-04-01T10:31:32.656Z,103164.73
2019-04-01T10:34:03.540Z,103160.74
2019-04-01T10:36:34.480Z,103162.23
2019-04-01T10:39:07.575Z,103164.40
2019-04-01T10:41:38.554Z,103165.28
2019-04-01T10:44:09.441Z,103170.14
2019-04-01T10:46:40.827Z,103163.96
2019-04-01T10:49:11.990Z,103171.02
2019-04-01T10:51:43.949Z,103170.72
2019-04-01T10:54:14.884Z,103174.20
2019-04-01T10:56:45.796Z,103175.58
2019-04-01T10:59:16.716Z,103171.58
2019-04-01T11:01:47.689Z,103164.36
2019-04-01T11:04:21.947Z,103171.97
2019-04-01T11:06:53.026Z,103163.34
2019-04-01T11:09:37.728Z,103173.95
2019-04-01T11:11:56.590Z,103167.51
2019-04-01T11:14:27.535Z,103165.38
2019-04-01T11:16:58.467Z,103168.76
2019-04-01T11:19:29.344Z,103162.58
2019-04-01T11:22:01.211Z,103160.01
2019-04-01T11:24:32.893Z,103155.98
2019-04-01T11:27:03.808Z,103159.94
2019-04-01T11:29:34.692Z,103152.36
2019-04-01T11:32:05.670Z,103159.21
2019-04-01T11:34:36.578Z,103159.32
2019-04-01T11:37:08.503Z,103161.52
2019-04-01T11:39:39.466Z,103152.03
2019-04-01T11:42:10.498Z,103152.14
2019-04-01T11:44:41.442Z,103155.98
2019-04-01T11:47:12.450Z,103149.33
2019-04-01T11:49:43.301Z,103149.67
2019-04-01T11:52:15.678Z,103147.58
2019-04-01T11:54:46.867Z,103139.64
2019-04-01T11:57:17.789Z,103148.42
2019-04-01T11:59:48.682Z,103149.80
2019-04-01T12:02:19.609Z,103147.45
2019-04-01T12:04:50.491Z,103137.95
2019-04-01T12:07:21.514Z,103149.70
2019-04-01T12:09:52.561Z,103149.74
2019-04-01T12:12:24.509Z,103138.83
2019-04-01T12:14:55.525Z,103152.00
2019-04-01T12:17:26.459Z,103148.45
2019-04-01T12:19:57.413Z,103140.99
2019-04-01T12:22:30.817Z,103139.06
2019-04-01T12:25:02.627Z,103134.54
2019-04-01T12:27:33.527Z,103129.23
2019-04-01T12:30:05.718Z,103131.67
2019-04-01T12:32:36.637Z,103132.65
2019-04-01T12:35:07.633Z,103126.06
2019-04-01T12:37:39.433Z,103121.60
2019-04-01T12:40:10.629Z,103132.78
2019-04-01T12:42:41.533Z,103120.08
2019-04-01T12:45:12.415Z,103127.52
2019-04-01T12:47:43.703Z,103110.52
2019-04-01T12:50:15.274Z,103118.73
2019-04-01T12:52:47.066Z,103117.11
2019-04-01T12:55:18.048Z,103114.48
2019-04-01T12:57:49.009Z,103106.13
2019-04-01T13:00:22.198Z,103109.17
2019-04-01T13:02:53.301Z,103109.78
2019-04-01T13:05:24.190Z,103106.58
2019-04-01T13:07:56.011Z,103106.58
2019-04-01T13:10:26.897Z,103102.69
2019-04-01T13:12:57.811Z,103101.37
2019-04-01T13:15:28.695Z,103100.02
2019-04-01T13:17:59.611Z,103101.84
2019-04-01T13:20:37.615Z,103089.42
2019-04-01T13:23:03.136Z,103093.88
2019-04-01T13:25:35.593Z,103090.47
2019-04-01T13:28:06.512Z,103084.32
2019-04-01T13:30:37.393Z,103083.72
2019-04-01T13:33:08.322Z,103083.41
2019-04-01T13:35:39.981Z,103079.87
2019-04-01T13:38:11.891Z,103086.85
2019-04-01T13:40:44.264Z,103080.84
2019-04-01T13:43:17.000Z,103080.70
2019-04-01T13:45:48.047Z,103070.20
2019-04-01T13:48:19.967Z,103076.39
2019-04-01T13:50:50.862Z,103070.78
2019-04-01T13:53:24.035Z,103076.89
2019-04-01T13:55:54.912Z,103064.61
2019-04-01T13:58:25.832Z,103065.11
2019-04-01T14:00:57.472Z,103062.31
2019-04-01T14:03:34.937Z,103072.44
2019-04-01T14:06:05.816Z,103069.50
2019-04-01T14:08:38.420Z,103069.59
2019-04-01T14:11:09.305Z,103063.02
2019-04-01T14:13:41.613Z,103065.52
2019-04-01T14:16:35.962Z,103061.60
2019-04-01T14:19:12.710Z,103062.06
2019-04-01T14:22:09.043Z,103052.02
2019-04-01T14:24:45.682Z,103052.05
2019-04-01T14:27:19.947Z,103045.05
2019-04-01T14:29:50.865Z,103035.88
2019-04-01T14:32:21.967Z,103038.84
2019-04-01T14:34:52.899Z,103037.94
2019-04-01T14:37:26.217Z,103029.33
2019-04-01T14:39:57.376Z,103022.75
2019-04-01T14:42:28.283Z,103031.08
2019-04-01T14:45:00.611Z,103023.19
2019-04-01T14:47:32.576Z,103018.89
2019-04-01T14:50:07.498Z,103011.91
2019-04-01T14:52:36.245Z,103009.14
2019-04-01T14:55:08.154Z,103013.56
2019-04-01T14:57:39.115Z,103002.30
2019-04-01T15:00:12.867Z,103006.67
2019-04-01T15:02:43.763Z,102999.66
2019-04-01T15:05:14.681Z,103001.38
2019-04-01T15:07:46.959Z,102994.33
2019-04-01T15:10:18.426Z,103000.09
2019-04-01T15:13:04.057Z,103005.90
2019-04-01T15:15:21.979Z,102997.13
2019-04-01T15:17:52.858Z,102988.01
2019-04-01T15:20:23.906Z,102988.32
2019-04-01T15:22:54.907Z,102995.41
2019-04-01T15:25:26.878Z,102985.38
2019-04-01T15:27:58.356Z,102978.36
2019-04-01T15:30:46.986Z,102975.70
2019-04-01T15:33:17.892Z,102977.80
2019-04-01T15:35:48.814Z,102987.95
2019-04-01T15:38:19.730Z,102995.41
2019-04-01T15:40:50.666Z,102980.62
2019-04-01T15:43:21.564Z,102988.04
2019-04-01T15:45:52.489Z,102982.47
2019-04-01T15:48:23.373Z,102981.62
2019-04-01T15:50:54.300Z,102974.54
2019-04-01T15:53:25.199Z,102972.28
2019-04-01T15:55:57.003Z,102973.31
2019-04-01T15:58:27.900Z,102967.68
2019-04-01T16:00:58.825Z,102967.68
2019-04-01T16:03:29.780Z,102975.57
2019-04-01T16:06:00.690Z,102975.31
2019-04-01T16:08:31.658Z,102969.58
2019-04-01T16:11:03.555Z,102965.20
2019-04-01T16:13:34.474Z,102968.27
2019-04-01T16:16:07.056Z,102959.16
2019-04-01T16:18:38.118Z,102960.08
2019-04-01T16:21:09.050Z,102956.14
2019-04-01T16:23:39.948Z,102960.14
2019-04-01T16:26:11.854Z,102963.27
2019-04-01T16:28:42.913Z,102962.82
2019-04-01T16:31:13.834Z,102966.48
2019-04-01T16:33:44.752Z,102966.48
2019-04-01T16:36:15.687Z,102959.60
2019-04-01T16:38:46.588Z,102962.66
2019-04-01T16:41:18.407Z,102963.96
2019-04-01T16:43:49.312Z,102965.77
2019-04-01T16:46:20.252Z,102965.01
2019-04-01T16:48:51.152Z,102966.34
2019-04-01T16:51:22.103Z,102972.08
2019-04-01T16:53:55.936Z,102970.39
2019-04-01T16:56:26.605Z,102966.14
2019-04-01T16:58:57.576Z,102968.33
2019-04-01T17:01:28.514Z,102965.72
2019-04-01T17:03:59.416Z,102970.20
2019-04-01T17:06:30.433Z,102964.55
2019-04-01T17:09:01.336Z,102968.48
2019-04-01T17:11:32.282Z,102975.08
2019-04-01T17:14:03.188Z,102965.52
2019-04-01T17:16:34.232Z,102971.20
2019-04-01T17:19:05.133Z,102971.67
2019-04-01T17:21:36.073Z,102970.41
2019-04-01T17:24:06.976Z,102974.36
2019-04-01T17:26:58.078Z,102977.00
2019-04-01T17:29:31.765Z,102975.28
2019-04-01T17:32:02.645Z,102983.20
2019-04-01T17:34:33.543Z,102980.58
2019-04-01T17:37:04.489Z,102982.41
2019-04-01T17:39:35.395Z,102990.34
2019-04-01T17:42:07.360Z,102992.97
2019-04-01T17:44:38.264Z,102995.63
2019-04-01T17:47:09.202Z,102993.03
2019-04-01T17:49:40.113Z,102989.13
2019-04-01T17:52:11.160Z,103001.78
2019-04-01T17:54:42.079Z,102999.63
2019-04-01T17:57:13.952Z,102997.02
2019-04-01T17:59:44.823Z,102999.20
2019-04-01T18:02:18.735Z,103003.13
2019-04-01T18:04:49.666Z,103007.50
2019-04-01T18:07:20.603Z,103010.57
2019-04-01T18:09:51.577Z,103019.31
2019-04-01T18:12:23.988Z,103015.39
2019-04-01T18:14:55.264Z,103022.80
2019-04-01T18:17:26.210Z,103014.95
2019-04-01T18:19:57.119Z,103014.08
2019-04-01T18:22:29.120Z,103018.90
2019-04-01T18:25:00.406Z,103018.47
2019-04-01T18:27:32.257Z,103012.80
2019-04-01T18:30:06.426Z,103014.09
2019-04-01T18:32:37.625Z,103011.48
2019-04-01T18:35:09.033Z,103020.22
2019-04-01T18:37:40.015Z,103013.69
2019-04-01T18:40:11.303Z,103013.27
2019-04-01T18:42:42.278Z,103020.23
2019-04-01T18:45:13.306Z,103022.42
2019-04-01T18:47:44.240Z,103015.03
2019-04-01T18:50:15.147Z,103020.67
2019-04-01T18:52:46.082Z,103020.23
2019-04-01T18:55:17.012Z,103021.11
2019-04-01T18:57:48.965Z,103022.84
2019-04-01T19:00:20.386Z,103015.84
2019-04-01T19:02:51.349Z,103026.30
2019-04-01T19:05:22.423Z,103022.38
2019-04-01T19:07:53.400Z,103022.83
2019-04-01T19:10:24.443Z,103025.00
2019-04-01T19:13:05.772Z,103027.61
2019-04-01T19:15:29.835Z,103027.61
2019-04-01T19:18:01.735Z,103025.41
2019-04-01T19:20:32.689Z,103037.17
2019-04-01T19:23:03.742Z,103027.14
2019-04-01T19:25:34.712Z,103035.44
2019-04-01T19:28:06.635Z,103034.98
2019-04-01T19:30:38.447Z,103033.25
2019-04-01T19:33:09.415Z,103030.64
2019-04-01T19:35:40.352Z,103036.31
2019-04-01T19:38:11.333Z,103025.40
2019-04-01T19:40:42.351Z,103022.79
2019-04-01T19:43:16.137Z,103039.38
2019-04-01T19:45:50.539Z,103031.08
2019-04-01T19:48:20.164Z,103027.59
2019-04-01T19:50:51.071Z,103028.89
2019-04-01T19:53:22.072Z,103021.03
2019-04-01T19:55:53.067Z,103017.09
2019-04-01T19:58:25.501Z,103017.09
2019-04-01T20:00:57.073Z,103030.56
2019-04-01T20:03:28.028Z,103022.71
2019-04-01T20:05:58.923Z,103025.77
2019-04-01T20:08:29.862Z,103028.80
2019-04-01T20:11:00.769Z,103030.96
2019-04-01T20:13:32.586Z,103023.53
2019-04-01T20:16:03.487Z,103035.25
2019-04-01T20:18:35.312Z,103022.14
2019-04-01T20:21:07.079Z,103027.80
2019-04-01T20:23:38.021Z,103029.09
2019-04-01T20:26:09.004Z,103026.03
2019-04-01T20:28:42.079Z,103030.78
2019-04-01T20:31:14.388Z,103032.06
2019-04-01T20:33:45.425Z,103034.64
2019-04-01T20:36:28.008Z,103028.97
2019-04-01T20:38:49.005Z,103026.73
2019-04-01T20:41:20.254Z,103026.73
2019-04-01T20:43:52.943Z,103034.08
2019-04-01T20:46:23.846Z,103034.08
2019-04-01T20:48:54.786Z,103038.00
2019-04-01T20:51:26.133Z,103017.02
2019-04-01T20:53:57.531Z,103037.02
2019-04-01T20:56:28.513Z,103037.02
2019-04-01T20:59:00.442Z,103028.73
2019-04-01T21:01:31.352Z,103029.59
2019-04-01T21:04:02.292Z,103020.84
2019-04-01T21:06:33.208Z,103020.81
2019-04-01T21:09:06.856Z,103018.59
2019-04-01T21:11:37.765Z,103025.50
2019-04-01T21:14:09.597Z,103025.50
2019-04-01T21:16:40.550Z,103019.40
2019-04-01T21:19:11.526Z,103014.98
2019-04-01T21:21:42.481Z,103014.98
2019-04-01T21:24:13.532Z,103014.50
2019-04-01T21:26:44.537Z,103017.53
2019-04-01T21:29:15.570Z,103017.48
2019-04-01T21:31:48.529Z,103017.48
2019-04-01T21:34:19.709Z,103022.66
2019-04-01T21:36:50.637Z,103018.25
2019-04-01T21:39:21.614Z,103013.88
2019-04-01T21:41:53.897Z,103011.69
2019-04-01T21:44:25.071Z,103009.47
2019-04-01T21:46:55.983Z,103010.77
2019-04-01T21:49:27.107Z,103004.66
2019-04-01T21:51:58.014Z,103011.14
2019-04-01T21:54:28.955Z,103007.61
2019-04-01T21:56:59.849Z,103001.51
2019-04-01T21:59:31.680Z,102997.14
2019-04-01T22:02:03.356Z,103001.46
2019-04-01T22:04:35.206Z,103001.84
2019-04-01T22:07:06.208Z,103001.84
2019-04-01T22:09:38.084Z,103001.38
2019-04-01T22:12:08.995Z,102994.44
2019-04-01T22:14:39.946Z,103000.91
2019-04-01T22:17:10.860Z,102995.23
2019-04-01T22:19:41.804Z,102996.95
2019-04-01T22:22:12.708Z,102992.16
2019-04-01T22:24:43.638Z,102991.70
2019-04-01T22:27:14.551Z,102993.42
2019-04-01T22:29:46.328Z,102989.92
2019-04-01T22:32:17.241Z,102981.65
2019-04-01T22:34:48.180Z,102991.19
2019-04-01T22:37:27.052Z,102989.00
2019-04-01T22:39:51.729Z,102985.93
2019-04-01T22:42:22.687Z,102980.71
2019-04-01T22:44:53.686Z,102978.06
2019-04-01T22:47:24.639Z,102975.87
2019-04-01T22:49:55.620Z,102964.10
2019-04-01T22:52:26.551Z,102971.03
2019-04-01T22:54:58.263Z,102971.45
2019-04-01T22:57:30.148Z,102964.89
2019-04-01T23:00:01.955Z,102972.28
2019-04-01T23:02:32.907Z,102970.92
2019-04-01T23:05:04.584Z,102976.09
2019-04-01T23:07:35.508Z,102971.76
2019-04-01T23:10:07.971Z,102968.68
2019-04-01T23:12:38.918Z,102972.97
2019-04-01T23:15:10.878Z,102972.08
2019-04-01T23:17:41.830Z,102968.16
2019-04-01T23:20:12.878Z,102965.09
2019-04-01T23:22:43.816Z,102966.81
2019-04-01T23:25:15.254Z,102965.92
2019-04-01T23:27:46.172Z,102962.42
2019-04-01T23:30:17.988Z,102960.66
2019-04-01T23:32:48.902Z,102963.22
2019-04-01T23:35:19.913Z,102961.48
2019-04-01T23:37:50.820Z,102965.34
2019-04-01T23:40:21.761Z,102958.36
2019-04-01T23:42:52.670Z,102963.09
2019-04-01T23:45:23.638Z,102951.75
2019-04-01T23:47:54.558Z,102956.94
2019-04-01T23:50:25.741Z,102955.59
2019-04-01T23:52:56.719Z,102951.63
2019-04-01T23:55:29.199Z,102955.94
2019-04-01T23:58:00.755Z,102948.91
